Kintore, United Kingdom
Current Conditions -  °F | °C
As of 5:50 PM on Wednesday 28 Jan 2015 (Local Time) from EGPD Reporting Station
Clear Clear  
Wind Chill: 26°   Ceiling: Unl
Heat Index: 36°   Visibility: 6mi
Dew Point: 25°   Wind: 15mph
Humidity: 65%   Direction: 270°W
Pressure: 28.97"   Gusts: NA
Location:  57.24°N, 2.35°W
Report Text: EGPD 281750Z 27013KT CAVOK 02/M04 Q0981 NOSIG
Loading
Personal Weather Stations






























Interactive Weather Map New forecast layout! Learn more

10-Day Weather Forecast

Advertisements
Track Severe Weather on mobile